Time;durP1;ratioP1;P1;durP2;ratioP2;P2;SDS_P1;SDS_P2;PMS_P1;PMS_P2;Temp;Humidity;BMP_temperature;BMP_pressure;BME280_temperature;BME280_humidity;BME280_pressure;Samples;Min_cycle;Max_cycle;Signal;HPM_P1;HPM_P2
2022/11/10 00:00:13;;;;;;;4.20;1.80;;;;;;;;;;4984512;28;20397;-74
2022/11/10 00:02:38;;;;;;;3.78;2.00;;;;;;;;;;4982059;28;20034;-73
2022/11/10 00:05:04;;;;;;;5.13;1.60;;;;;;;;;;4986783;28;20034;-73
2022/11/10 00:07:29;;;;;;;2.97;2.15;;;;;;;;;;4992644;28;20473;-75
2022/11/10 00:09:54;;;;;;;4.53;1.87;;;;;;;;;;4987901;28;20037;-73
2022/11/10 00:12:20;;;;;;;10.13;2.20;;;;;;;;;;4991076;28;20301;-70
2022/11/10 00:17:29;;;;;;;2.35;2.00;;;;;;;;;;4990481;28;20031;-73
2022/11/10 00:19:54;;;;;;;3.20;1.87;;;;;;;;;;4991969;28;20512;-73
2022/11/10 00:22:20;;;;;;;6.65;1.90;;;;;;;;;;4991243;28;20760;-72
2022/11/10 00:24:45;;;;;;;4.97;1.80;;;;;;;;;;4990826;28;20038;-73
2022/11/10 00:27:11;;;;;;;2.85;1.73;;;;;;;;;;4973534;28;20034;-72
2022/11/10 00:29:36;;;;;;;4.35;1.95;;;;;;;;;;4988932;28;20038;-71
2022/11/10 00:32:01;;;;;;;3.17;1.63;;;;;;;;;;4991782;28;20053;-72
2022/11/10 00:34:26;;;;;;;6.40;1.80;;;;;;;;;;4991690;28;20285;-76
2022/11/10 00:36:52;;;;;;;2.90;1.33;;;;;;;;;;4969138;28;20389;-79
2022/11/10 00:39:17;;;;;;;5.28;1.63;;;;;;;;;;4982916;28;20369;-78
2022/11/10 00:41:42;;;;;;;6.30;1.88;;;;;;;;;;4989265;28;20054;-77
2022/11/10 00:44:07;;;;;;;3.88;2.08;;;;;;;;;;4968699;28;20033;-77
2022/11/10 00:46:33;;;;;;;5.23;1.57;;;;;;;;;;4986728;28;20089;-76
2022/11/10 00:48:58;;;;;;;3.70;1.60;;;;;;;;;;4988942;28;20875;-71
2022/11/10 00:51:24;;;;;;;7.83;2.53;;;;;;;;;;4986783;28;20025;-72
2022/11/10 00:53:50;;;;;;;3.67;1.75;;;;;;;;;;4971082;28;20090;-76
2022/11/10 00:56:15;;;;;;;3.05;1.80;;;;;;;;;;4988369;28;20120;-76
2022/11/10 00:58:41;;;;;;;4.07;1.73;;;;;;;;;;4989878;28;20421;-76
2022/11/10 01:01:06;;;;;;;6.43;1.83;;;;;;;;;;4988781;28;20030;-76
2022/11/10 01:03:32;;;;;;;2.80;1.40;;;;;;;;;;4990092;28;20021;-76
2022/11/10 01:05:57;;;;;;;3.63;1.60;;;;;;;;;;4987968;28;20092;-76
2022/11/10 01:08:22;;;;;;;3.30;1.77;;;;;;;;;;4971909;28;20030;-68
2022/11/10 01:10:48;;;;;;;3.10;1.60;;;;;;;;;;4985626;28;20053;-75
2022/11/10 01:13:13;;;;;;;5.07;1.40;;;;;;;;;;4990409;28;20360;-76
2022/11/10 01:15:39;;;;;;;2.80;1.67;;;;;;;;;;4983871;28;20037;-76
2022/11/10 01:18:04;;;;;;;3.42;1.50;;;;;;;;;;4992324;28;20803;-75
2022/11/10 01:20:31;;;;;;;2.65;1.92;;;;;;;;;;4992633;28;20030;-76
2022/11/10 01:22:56;;;;;;;2.35;1.48;;;;;;;;;;4993836;28;20057;-76
2022/11/10 01:25:21;;;;;;;5.60;2.57;;;;;;;;;;4993339;28;20550;-72
2022/11/10 01:27:47;;;;;;;6.03;2.03;;;;;;;;;;4989356;28;20824;-70
2022/11/10 01:30:12;;;;;;;6.60;1.88;;;;;;;;;;4968404;23;20043;-76
2022/11/10 01:32:37;;;;;;;7.28;1.75;;;;;;;;;;4967551;28;20027;-75
2022/11/10 01:35:03;;;;;;;4.07;1.30;;;;;;;;;;4971553;28;20665;-76
2022/11/10 01:37:28;;;;;;;2.78;1.40;;;;;;;;;;4970884;28;20677;-75
2022/11/10 01:39:53;;;;;;;4.37;1.50;;;;;;;;;;4969865;28;20031;-75
2022/11/10 01:42:26;;;;;;;3.73;1.40;;;;;;;;;;4970033;28;20313;-75
2022/11/10 01:45:10;;;;;;;3.35;1.48;;;;;;;;;;4970770;28;20057;-71
2022/11/10 01:47:35;;;;;;;6.53;1.55;;;;;;;;;;4969571;28;20027;-69
2022/11/10 01:50:00;;;;;;;4.25;1.15;;;;;;;;;;4966271;28;20367;-69
2022/11/10 01:52:26;;;;;;;7.53;1.75;;;;;;;;;;4970056;28;20078;-69
2022/11/10 01:54:51;;;;;;;6.00;1.90;;;;;;;;;;4969598;28;20124;-69
2022/11/10 01:57:16;;;;;;;8.15;2.47;;;;;;;;;;4970016;28;20491;-70
2022/11/10 01:59:43;;;;;;;6.53;1.60;;;;;;;;;;4966546;28;20042;-70
2022/11/10 02:02:12;;;;;;;5.20;1.73;;;;;;;;;;4967357;28;20023;-71
2022/11/10 02:04:38;;;;;;;5.10;1.38;;;;;;;;;;4970607;28;20117;-68
2022/11/10 02:07:04;;;;;;;3.30;1.50;;;;;;;;;;4967709;28;20089;-67
2022/11/10 02:09:29;;;;;;;3.38;1.83;;;;;;;;;;4966445;28;20073;-69
2022/11/10 02:11:55;;;;;;;12.70;3.07;;;;;;;;;;4970449;28;20544;-70
2022/11/10 02:14:20;;;;;;;4.05;1.92;;;;;;;;;;4967986;28;20310;-68
2022/11/10 02:16:45;;;;;;;6.87;1.90;;;;;;;;;;4974123;28;20030;-68
2022/11/10 02:19:15;;;;;;;1.88;1.20;;;;;;;;;;4964168;28;20315;-67
2022/11/10 02:21:41;;;;;;;7.60;1.55;;;;;;;;;;4970983;28;20536;-75
2022/11/10 02:24:06;;;;;;;2.77;1.57;;;;;;;;;;4970651;28;20030;-65
2022/11/10 02:26:31;;;;;;;4.45;2.38;;;;;;;;;;4978525;28;20034;-65
2022/11/10 02:28:57;;;;;;;4.20;1.80;;;;;;;;;;4984223;28;20034;-66
2022/11/10 02:31:22;;;;;;;11.77;3.00;;;;;;;;;;4989120;28;20030;-65
2022/11/10 02:33:47;;;;;;;7.53;1.60;;;;;;;;;;4984634;28;20277;-65
2022/11/10 02:36:12;;;;;;;3.40;1.40;;;;;;;;;;4989934;28;20277;-69
2022/11/10 02:38:38;;;;;;;4.93;1.73;;;;;;;;;;4982991;28;20285;-66
2022/11/10 02:41:03;;;;;;;4.28;1.85;;;;;;;;;;4987669;28;20289;-69
2022/11/10 02:43:29;;;;;;;6.13;1.90;;;;;;;;;;4989095;28;20424;-69
2022/11/10 02:45:54;;;;;;;10.23;1.90;;;;;;;;;;4982641;28;20117;-70
2022/11/10 02:48:19;;;;;;;4.63;1.55;;;;;;;;;;4989717;28;21169;-71
2022/11/10 02:50:45;;;;;;;5.53;2.08;;;;;;;;;;4985899;28;20038;-68
2022/11/10 02:53:10;;;;;;;2.85;1.48;;;;;;;;;;4989543;28;20520;-69
2022/11/10 02:55:35;;;;;;;3.00;1.75;;;;;;;;;;4987919;28;20047;-69
2022/11/10 02:58:00;;;;;;;5.18;1.60;;;;;;;;;;4983405;28;20334;-78
2022/11/10 03:00:26;;;;;;;5.83;1.63;;;;;;;;;;4986470;28;20038;-69
2022/11/10 03:02:54;;;;;;;6.97;2.33;;;;;;;;;;4985839;28;20317;-68
2022/11/10 03:05:20;;;;;;;6.05;1.75;;;;;;;;;;4982864;28;20301;-69
2022/11/10 03:07:50;;;;;;;4.47;1.73;;;;;;;;;;4984724;28;20179;-68
2022/11/10 03:10:15;;;;;;;12.10;2.42;;;;;;;;;;4988862;28;20350;-68
2022/11/10 03:12:40;;;;;;;3.45;1.65;;;;;;;;;;4983704;28;21300;-68
2022/11/10 03:15:06;;;;;;;4.77;2.10;;;;;;;;;;4984842;28;20047;-68
2022/11/10 03:17:31;;;;;;;4.88;1.77;;;;;;;;;;4995217;28;20404;-70
2022/11/10 03:19:56;;;;;;;3.37;1.93;;;;;;;;;;4985716;28;20514;-69
2022/11/10 03:22:21;;;;;;;3.67;2.20;;;;;;;;;;4984302;28;20031;-68
2022/11/10 03:24:47;;;;;;;2.53;1.60;;;;;;;;;;4989871;28;20114;-68
2022/11/10 03:27:12;;;;;;;4.27;1.97;;;;;;;;;;4986758;28;20278;-69
2022/11/10 03:29:37;;;;;;;2.97;1.67;;;;;;;;;;4986914;28;20076;-69
2022/11/10 03:32:02;;;;;;;4.43;1.93;;;;;;;;;;4988425;28;20351;-68
2022/11/10 03:34:27;;;;;;;14.23;2.43;;;;;;;;;;4987735;28;20289;-66
2022/11/10 03:36:53;;;;;;;6.90;2.40;;;;;;;;;;4988410;28;20050;-64
2022/11/10 03:39:18;;;;;;;3.37;2.07;;;;;;;;;;4990065;28;20075;-76
2022/11/10 03:41:43;;;;;;;6.53;1.60;;;;;;;;;;4984518;28;20397;-76
2022/11/10 03:44:08;;;;;;;18.73;2.30;;;;;;;;;;4991852;28;20643;-77
2022/11/10 03:46:33;;;;;;;7.27;2.13;;;;;;;;;;4989619;28;20647;-76
2022/11/10 03:48:59;;;;;;;6.22;1.85;;;;;;;;;;4985935;28;20076;-76
2022/11/10 03:51:24;;;;;;;7.13;1.87;;;;;;;;;;4991248;28;20022;-78
2022/11/10 03:53:49;;;;;;;3.63;1.60;;;;;;;;;;4990769;28;20428;-69
2022/11/10 03:56:14;;;;;;;4.68;2.13;;;;;;;;;;4992754;28;20756;-65
2022/11/10 03:58:40;;;;;;;3.63;1.60;;;;;;;;;;4992657;28;20133;-66
2022/11/10 04:01:05;;;;;;;7.18;2.17;;;;;;;;;;4990907;28;20034;-65
2022/11/10 04:03:31;;;;;;;5.28;1.83;;;;;;;;;;4991835;28;20026;-65
2022/11/10 04:08:58;;;;;;;4.47;1.40;;;;;;;;;;4992346;28;20034;-66
2022/11/10 04:16:51;;;;;;;2.83;2.03;;;;;;;;;;4986962;28;20374;-70
2022/11/10 04:19:16;;;;;;;6.37;1.80;;;;;;;;;;4989925;28;20080;-70
2022/11/10 04:21:41;;;;;;;10.47;1.50;;;;;;;;;;4992180;28;20038;-71
2022/11/10 04:24:06;;;;;;;5.03;1.97;;;;;;;;;;4986820;28;20033;-69
2022/11/10 04:26:32;;;;;;;3.65;1.92;;;;;;;;;;4991636;28;20294;-71
2022/11/10 04:29:01;;;;;;;4.22;1.92;;;;;;;;;;4988122;28;20046;-70
2022/11/10 04:31:28;;;;;;;7.35;2.47;;;;;;;;;;4982423;28;20034;-71
2022/11/10 04:33:53;;;;;;;4.72;1.90;;;;;;;;;;4985683;28;20031;-67
2022/11/10 04:36:20;;;;;;;3.35;1.50;;;;;;;;;;4987517;28;20100;-69
2022/11/10 04:38:45;;;;;;;7.88;1.92;;;;;;;;;;4991126;28;20026;-68
2022/11/10 04:41:11;;;;;;;4.40;1.63;;;;;;;;;;4990894;28;20042;-70
2022/11/10 04:43:36;;;;;;;2.30;1.63;;;;;;;;;;4990840;28;20034;-70
2022/11/10 04:46:02;;;;;;;3.80;1.67;;;;;;;;;;4991169;28;20038;-69
2022/11/10 04:48:27;;;;;;;3.22;1.65;;;;;;;;;;4992466;28;20034;-67
2022/11/10 04:50:53;;;;;;;6.13;2.30;;;;;;;;;;4982284;28;20429;-66
2022/11/10 04:53:18;;;;;;;5.35;1.67;;;;;;;;;;4993126;28;20377;-66
2022/11/10 04:55:44;;;;;;;2.38;1.40;;;;;;;;;;4992281;28;20031;-67
2022/11/10 04:58:09;;;;;;;1.88;1.60;;;;;;;;;;4988091;28;20243;-65
2022/11/10 05:00:35;;;;;;;4.85;1.85;;;;;;;;;;4983327;28;20050;-66
2022/11/10 05:03:01;;;;;;;5.85;1.80;;;;;;;;;;4989824;28;20030;-70
2022/11/10 05:05:26;;;;;;;5.20;1.70;;;;;;;;;;4991088;28;20037;-66
2022/11/10 05:07:51;;;;;;;5.13;1.75;;;;;;;;;;4992112;28;20030;-68
2022/11/10 05:10:16;;;;;;;6.57;1.80;;;;;;;;;;4991601;28;20019;-67
2022/11/10 05:12:42;;;;;;;2.38;1.58;;;;;;;;;;4986132;28;20502;-68
2022/11/10 05:15:08;;;;;;;3.93;2.00;;;;;;;;;;5001126;28;20026;-66
2022/11/10 05:17:33;;;;;;;3.58;1.95;;;;;;;;;;4986854;28;20274;-66
2022/11/10 05:19:58;;;;;;;3.95;2.05;;;;;;;;;;4990286;28;20385;-66
2022/11/10 05:22:23;;;;;;;4.37;1.50;;;;;;;;;;4990569;28;20038;-67
2022/11/10 05:24:49;;;;;;;3.87;1.90;;;;;;;;;;4990863;28;20420;-69
2022/11/10 05:27:14;;;;;;;3.40;2.30;;;;;;;;;;4989863;28;20324;-68
2022/11/10 05:29:39;;;;;;;5.18;1.77;;;;;;;;;;4991524;28;20424;-73
2022/11/10 05:32:04;;;;;;;5.13;1.97;;;;;;;;;;4987510;28;20125;-71
2022/11/10 05:34:30;;;;;;;5.28;2.13;;;;;;;;;;4984223;28;20807;-72
2022/11/10 05:36:55;;;;;;;5.07;2.00;;;;;;;;;;4983874;28;20034;-71
2022/11/10 05:39:20;;;;;;;3.13;2.10;;;;;;;;;;4988943;28;20274;-72
2022/11/10 05:41:45;;;;;;;2.95;1.52;;;;;;;;;;4987225;28;20026;-70
2022/11/10 05:44:10;;;;;;;3.53;2.13;;;;;;;;;;4989233;28;20034;-69
2022/11/10 05:46:36;;;;;;;8.00;1.73;;;;;;;;;;4987206;28;20125;-77
2022/11/10 05:49:01;;;;;;;3.80;1.87;;;;;;;;;;4981117;28;20424;-76
2022/11/10 05:51:27;;;;;;;3.35;1.90;;;;;;;;;;4984475;28;20373;-77
2022/11/10 05:53:52;;;;;;;2.90;1.60;;;;;;;;;;4990725;28;20468;-76
2022/11/10 05:56:17;;;;;;;4.63;1.77;;;;;;;;;;4991759;28;20142;-76
2022/11/10 05:58:42;;;;;;;3.43;2.03;;;;;;;;;;4986352;28;20760;-76
2022/11/10 06:01:07;;;;;;;4.60;1.50;;;;;;;;;;4992619;28;20276;-76
2022/11/10 06:03:33;;;;;;;4.40;2.40;;;;;;;;;;4986426;28;20286;-69
2022/11/10 06:05:58;;;;;;;5.23;1.77;;;;;;;;;;4991493;28;20026;-78
2022/11/10 06:08:23;;;;;;;4.55;1.98;;;;;;;;;;4990048;28;20764;-77
2022/11/10 06:10:48;;;;;;;9.13;2.30;;;;;;;;;;4989688;28;20030;-76
2022/11/10 06:13:14;;;;;;;4.25;2.35;;;;;;;;;;4987896;28;20417;-77
2022/11/10 06:15:39;;;;;;;3.37;1.83;;;;;;;;;;4985554;28;20556;-77
2022/11/10 06:18:04;;;;;;;5.03;1.87;;;;;;;;;;4984801;28;20035;-76
2022/11/10 06:20:30;;;;;;;8.95;2.13;;;;;;;;;;4987192;28;20293;-77
2022/11/10 06:22:59;;;;;;;3.90;2.17;;;;;;;;;;4985836;28;20129;-76
2022/11/10 06:25:25;;;;;;;;;;;;;;;;;;4981582;28;20827;-76
2022/11/10 06:27:50;;;;;;;3.17;2.13;;;;;;;;;;4987146;28;20420;-77
2022/11/10 06:30:15;;;;;;;3.30;2.08;;;;;;;;;;4986105;28;20040;-76
2022/11/10 06:32:41;;;;;;;4.55;1.70;;;;;;;;;;4989423;28;20034;-75
2022/11/10 06:35:06;;;;;;;6.70;2.45;;;;;;;;;;4988549;28;20087;-75
2022/11/10 06:37:32;;;;;;;4.22;2.05;;;;;;;;;;4990633;28;20018;-75
2022/11/10 06:39:57;;;;;;;5.20;2.63;;;;;;;;;;4989292;28;20454;-76
2022/11/10 06:42:22;;;;;;;7.05;2.30;;;;;;;;;;4983973;28;20273;-75
2022/11/10 06:44:47;;;;;;;3.45;2.00;;;;;;;;;;4990184;28;20034;-76
2022/11/10 06:47:14;;;;;;;4.73;2.30;;;;;;;;;;4986139;28;20026;-76
2022/11/10 06:49:39;;;;;;;6.03;2.83;;;;;;;;;;4991485;28;20080;-75
2022/11/10 06:52:04;;;;;;;4.13;2.20;;;;;;;;;;4991623;28;20077;-75
2022/11/10 06:54:29;;;;;;;6.82;2.63;;;;;;;;;;4990327;28;20404;-74
2022/11/10 06:56:55;;;;;;;4.63;2.00;;;;;;;;;;4983514;28;20037;-74
2022/11/10 06:59:20;;;;;;;5.17;2.10;;;;;;;;;;4989141;28;20594;-67
2022/11/10 07:01:46;;;;;;;5.43;2.10;;;;;;;;;;4981351;28;20764;-77
2022/11/10 07:04:14;;;;;;;5.47;2.58;;;;;;;;;;4987563;28;20289;-75
2022/11/10 07:06:39;;;;;;;5.97;2.05;;;;;;;;;;4990153;28;20520;-76
2022/11/10 07:09:05;;;;;;;5.17;2.77;;;;;;;;;;4980701;28;20142;-76
2022/11/10 07:11:30;;;;;;;5.65;2.47;;;;;;;;;;4987051;28;20369;-77
2022/11/10 07:13:55;;;;;;;8.13;3.07;;;;;;;;;;4988732;28;20031;-77
2022/11/10 07:16:21;;;;;;;4.27;2.00;;;;;;;;;;4993466;28;20304;-70
2022/11/10 07:18:46;;;;;;;7.05;2.78;;;;;;;;;;4993929;28;20317;-71
2022/11/10 07:21:11;;;;;;;6.32;2.15;;;;;;;;;;4990709;28;20088;-70
2022/11/10 07:23:37;;;;;;;4.18;2.20;;;;;;;;;;4991812;28;20022;-70
2022/11/10 07:26:02;;;;;;;6.60;2.17;;;;;;;;;;4993756;28;20612;-70
2022/11/10 07:28:27;;;;;;;6.85;2.97;;;;;;;;;;4993016;28;20377;-70
2022/11/10 07:30:53;;;;;;;7.47;2.58;;;;;;;;;;4987819;28;20026;-70
2022/11/10 07:33:19;;;;;;;5.82;2.60;;;;;;;;;;4990433;28;20174;-72
2022/11/10 07:35:52;;;;;;;7.70;3.17;;;;;;;;;;4991166;28;20062;-70
2022/11/10 07:38:17;;;;;;;16.67;2.75;;;;;;;;;;4991380;28;20285;-65
2022/11/10 07:40:42;;;;;;;8.60;2.37;;;;;;;;;;4986165;28;20381;-66
2022/11/10 07:43:08;;;;;;;12.30;5.65;;;;;;;;;;4990977;28;20277;-68
2022/11/10 07:45:33;;;;;;;9.97;3.43;;;;;;;;;;4993222;28;20129;-67
2022/11/10 07:48:02;;;;;;;6.43;3.30;;;;;;;;;;4991878;28;20775;-68
2022/11/10 07:50:27;;;;;;;10.00;3.13;;;;;;;;;;4992474;28;20270;-66
2022/11/10 07:53:00;;;;;;;9.43;3.70;;;;;;;;;;4987677;28;20277;-71
2022/11/10 07:55:26;;;;;;;6.30;2.58;;;;;;;;;;4989814;28;20034;-66
2022/11/10 07:57:55;;;;;;;6.40;2.90;;;;;;;;;;4992663;28;20021;-67
2022/11/10 08:00:20;;;;;;;7.00;3.17;;;;;;;;;;4993047;28;20273;-66
2022/11/10 08:02:45;;;;;;;6.67;3.33;;;;;;;;;;4991738;28;20105;-69
2022/11/10 08:05:10;;;;;;;7.47;2.97;;;;;;;;;;4992177;28;20332;-68
2022/11/10 08:07:36;;;;;;;8.50;3.70;;;;;;;;;;4991981;28;20022;-69
2022/11/10 08:10:01;;;;;;;12.93;3.03;;;;;;;;;;4992462;28;20274;-67
2022/11/10 08:12:26;;;;;;;8.60;3.20;;;;;;;;;;4991220;28;20027;-75
2022/11/10 08:14:51;;;;;;;8.67;3.93;;;;;;;;;;4992791;28;20281;-72
2022/11/10 08:17:16;;;;;;;8.13;2.87;;;;;;;;;;4992218;28;20274;-73
2022/11/10 08:19:42;;;;;;;7.30;3.33;;;;;;;;;;4992914;28;20451;-72
2022/11/10 08:22:07;;;;;;;10.40;3.70;;;;;;;;;;4991124;28;20292;-73
2022/11/10 08:24:32;;;;;;;5.23;2.80;;;;;;;;;;4993340;28;20360;-73
2022/11/10 08:26:57;;;;;;;8.20;4.17;;;;;;;;;;4989722;28;20293;-74
2022/11/10 08:29:22;;;;;;;10.13;2.63;;;;;;;;;;4991845;28;20388;-65
2022/11/10 08:31:48;;;;;;;3.23;2.00;;;;;;;;;;4990125;28;20338;-67
2022/11/10 08:34:13;;;;;;;4.40;2.30;;;;;;;;;;4987479;28;20364;-66
2022/11/10 08:36:38;;;;;;;4.50;2.38;;;;;;;;;;4991311;28;20321;-66
2022/11/10 08:39:04;;;;;;;6.17;2.80;;;;;;;;;;4991994;28;20035;-65
2022/11/10 08:41:29;;;;;;;4.78;2.58;;;;;;;;;;4991276;28;20282;-66
2022/11/10 08:43:54;;;;;;;7.57;2.73;;;;;;;;;;4985321;28;20018;-67
2022/11/10 08:46:19;;;;;;;7.43;3.40;;;;;;;;;;4991765;28;20281;-67
2022/11/10 08:48:44;;;;;;;7.83;3.07;;;;;;;;;;4986754;28;20610;-74
2022/11/10 08:51:10;;;;;;;6.97;3.10;;;;;;;;;;4991237;28;20113;-67
2022/11/10 08:53:35;;;;;;;4.90;3.10;;;;;;;;;;4992259;28;20364;-70
2022/11/10 08:56:00;;;;;;;10.83;2.87;;;;;;;;;;4989197;28;20032;-70
2022/11/10 08:58:26;;;;;;;6.57;2.70;;;;;;;;;;4989782;28;20273;-67
2022/11/10 09:00:51;;;;;;;6.68;2.70;;;;;;;;;;4989722;28;20368;-68
2022/11/10 09:03:18;;;;;;;4.05;2.22;;;;;;;;;;4983968;28;20034;-66
2022/11/10 09:05:43;;;;;;;4.38;2.55;;;;;;;;;;4991212;28;20030;-76
2022/11/10 09:08:08;;;;;;;6.45;2.58;;;;;;;;;;4985879;28;20027;-71
2022/11/10 09:10:35;;;;;;;6.63;2.75;;;;;;;;;;4992144;28;20050;-75
2022/11/10 09:13:01;;;;;;;7.10;2.38;;;;;;;;;;4984862;28;20058;-76
2022/11/10 09:15:27;;;;;;;9.85;2.30;;;;;;;;;;4987410;28;20035;-76
2022/11/10 09:17:52;;;;;;;10.93;2.78;;;;;;;;;;4990097;28;20044;-74
2022/11/10 09:20:18;;;;;;;6.53;2.40;;;;;;;;;;4990358;28;20058;-77
2022/11/10 09:22:43;;;;;;;5.53;2.22;;;;;;;;;;4989515;28;20317;-74
2022/11/10 09:25:08;;;;;;;6.57;2.90;;;;;;;;;;4989823;28;20034;-72
2022/11/10 09:27:35;;;;;;;5.23;2.40;;;;;;;;;;4991371;28;20029;-72
2022/11/10 09:30:00;;;;;;;6.70;2.42;;;;;;;;;;4989419;28;20269;-72
2022/11/10 09:32:25;;;;;;;8.38;2.47;;;;;;;;;;4987213;28;20037;-73
2022/11/10 09:34:50;;;;;;;7.83;2.20;;;;;;;;;;4990876;28;20393;-71
2022/11/10 09:37:16;;;;;;;5.60;2.20;;;;;;;;;;4989303;28;20740;-73
2022/11/10 09:39:41;;;;;;;7.93;2.10;;;;;;;;;;4990909;28;20041;-71
2022/11/10 09:42:19;;;;;;;7.60;2.47;;;;;;;;;;4989869;28;20046;-73
2022/11/10 09:45:06;;;;;;;3.25;1.50;;;;;;;;;;4991706;28;20276;-68
2022/11/10 09:47:36;;;;;;;7.90;1.80;;;;;;;;;;4989113;28;20085;-68
2022/11/10 09:50:02;;;;;;;10.45;3.13;;;;;;;;;;4989804;28;20027;-71
2022/11/10 09:52:29;;;;;;;8.55;2.10;;;;;;;;;;4989659;28;20022;-69
2022/11/10 09:55:23;;;;;;;2.88;1.20;;;;;;;;;;4990200;28;20033;-69
2022/11/10 09:57:50;;;;;;;5.13;1.27;;;;;;;;;;4972822;28;20032;-71
2022/11/10 10:00:17;;;;;;;6.25;1.52;;;;;;;;;;4985620;28;20469;-69
2022/11/10 10:02:48;;;;;;;7.40;1.77;;;;;;;;;;4986741;28;20034;-74
2022/11/10 10:05:20;;;;;;;4.65;2.28;;;;;;;;;;4989578;28;20485;-66
2022/11/10 10:07:50;;;;;;;4.65;1.42;;;;;;;;;;4985967;28;20035;-66
2022/11/10 10:10:28;;;;;;;8.70;2.65;;;;;;;;;;4990750;28;20022;-70
2022/11/10 10:13:12;;;;;;;7.43;2.80;;;;;;;;;;5006395;28;20030;-67
2022/11/10 10:15:44;;;;;;;9.20;1.92;;;;;;;;;;4986823;28;20041;-66
2022/11/10 10:18:15;;;;;;;6.68;1.75;;;;;;;;;;4989833;28;20022;-68
2022/11/10 10:20:46;;;;;;;5.05;2.63;;;;;;;;;;4985479;28;20113;-71
2022/11/10 10:23:30;;;;;;;5.65;1.50;;;;;;;;;;4986465;28;20109;-66
2022/11/10 10:25:55;;;;;;;9.27;1.73;;;;;;;;;;4985737;28;20061;-66
2022/11/10 10:28:27;;;;;;;3.92;1.40;;;;;;;;;;4985996;28;20081;-65
2022/11/10 10:30:53;;;;;;;4.07;1.60;;;;;;;;;;4985485;28;20113;-68
2022/11/10 10:33:20;;;;;;;7.15;1.48;;;;;;;;;;4988469;28;20042;-65
2022/11/10 10:35:47;;;;;;;5.20;2.17;;;;;;;;;;4985727;28;20034;-66
2022/11/10 10:38:19;;;;;;;6.53;2.08;;;;;;;;;;4987438;28;20049;-73
2022/11/10 10:40:45;;;;;;;4.50;1.33;;;;;;;;;;4990658;28;20034;-65
2022/11/10 10:43:11;;;;;;;5.43;1.55;;;;;;;;;;4990617;28;20023;-65
2022/11/10 10:45:41;;;;;;;7.50;1.50;;;;;;;;;;4987927;28;20072;-67
2022/11/10 10:48:22;;;;;;;3.78;1.83;;;;;;;;;;4987432;28;20278;-68
2022/11/10 10:50:49;;;;;;;7.80;1.88;;;;;;;;;;4983105;28;20033;-66
2022/11/10 10:53:18;;;;;;;5.30;1.55;;;;;;;;;;4988413;28;20053;-65
2022/11/10 10:55:45;;;;;;;3.40;1.55;;;;;;;;;;4987518;28;20350;-65
2022/11/10 10:58:30;;;;;;;3.13;1.60;;;;;;;;;;4987344;28;20030;-70
2022/11/10 11:00:55;;;;;;;8.50;1.55;;;;;;;;;;4982106;28;20564;-68
2022/11/10 11:03:24;;;;;;;6.97;1.33;;;;;;;;;;4989650;28;20042;-66
2022/11/10 11:06:19;;;;;;;4.93;1.70;;;;;;;;;;4989632;28;20328;-66
2022/11/10 11:08:55;;;;;;;5.47;1.60;;;;;;;;;;4972207;28;20082;-66
2022/11/10 11:11:31;;;;;;;2.55;1.02;;;;;;;;;;4987939;28;20026;-65
2022/11/10 11:14:31;;;;;;;5.38;1.60;;;;;;;;;;4989505;28;20058;-71
2022/11/10 11:16:57;;;;;;;7.78;1.40;;;;;;;;;;4894195;29;20031;-59
2022/11/10 11:19:26;;;;;;;6.07;1.37;;;;;;;;;;4970723;28;20031;-67
2022/11/10 11:21:51;;;;;;;;;;;;;;;;;;4985911;28;20117;-67
2022/11/10 11:24:22;;;;;;;8.52;1.60;;;;;;;;;;4988174;28;20060;-67
2022/11/10 11:26:58;;;;;;;7.82;2.15;;;;;;;;;;4990079;28;20120;-68
2022/11/10 11:29:35;;;;;;;3.97;1.65;;;;;;;;;;4978232;28;20042;-67
2022/11/10 11:32:23;;;;;;;5.55;1.48;;;;;;;;;;4988569;28;20129;-67
2022/11/10 11:35:03;;;;;;;3.42;1.17;;;;;;;;;;4989756;28;20027;-64
2022/11/10 11:37:31;;;;;;;3.25;1.20;;;;;;;;;;5036812;23;20128;-68
2022/11/10 11:39:57;;;;;;;3.92;1.00;;;;;;;;;;5049100;28;20058;-70
2022/11/10 11:42:25;;;;;;;5.23;1.30;;;;;;;;;;5049902;28;20028;-69
2022/11/10 11:45:22;;;;;;;3.80;1.30;;;;;;;;;;5048728;28;20479;-67
2022/11/10 11:47:54;;;;;;;3.88;1.40;;;;;;;;;;4982057;28;20041;-67
2022/11/10 11:50:25;;;;;;;6.72;1.50;;;;;;;;;;5048790;28;20403;-68
2022/11/10 11:52:59;;;;;;;5.95;1.35;;;;;;;;;;5050150;28;20029;-66
2022/11/10 11:55:24;;;;;;;8.85;1.95;;;;;;;;;;5046039;28;20021;-69
2022/11/10 11:57:58;;;;;;;4.75;1.23;;;;;;;;;;5039744;28;20032;-67
2022/11/10 12:00:23;;;;;;;5.28;1.67;;;;;;;;;;5051141;28;20048;-68
2022/11/10 12:03:12;;;;;;;2.97;1.00;;;;;;;;;;5053947;28;20036;-66
2022/11/10 12:05:57;;;;;;;4.97;1.33;;;;;;;;;;5050116;28;20033;-66
2022/11/10 12:08:25;;;;;;;4.50;1.50;;;;;;;;;;5052583;28;20029;-66
2022/11/10 12:11:00;;;;;;;3.78;1.20;;;;;;;;;;5051648;28;20033;-67
2022/11/10 12:13:46;;;;;;;3.83;1.42;;;;;;;;;;5050738;28;20025;-62
2022/11/10 12:16:14;;;;;;;1.95;1.00;;;;;;;;;;5046664;28;20032;-62
2022/11/10 12:18:44;;;;;;;1.92;0.90;;;;;;;;;;5052007;28;20120;-61
2022/11/10 12:21:16;;;;;;;4.97;1.30;;;;;;;;;;5028242;28;20112;-62
2022/11/10 12:23:41;;;;;;;3.80;1.20;;;;;;;;;;5048193;28;20079;-63
2022/11/10 12:26:06;;;;;;;3.30;0.90;;;;;;;;;;5045282;28;20435;-66
2022/11/10 12:28:40;;;;;;;4.03;1.50;;;;;;;;;;5016768;28;20371;-70
2022/11/10 12:31:11;;;;;;;5.95;1.25;;;;;;;;;;5034215;28;20484;-68
2022/11/10 12:33:39;;;;;;;4.07;1.00;;;;;;;;;;5025020;28;20034;-69
2022/11/10 12:36:06;;;;;;;5.50;1.70;;;;;;;;;;5022509;28;20060;-68
2022/11/10 12:38:39;;;;;;;5.65;1.55;;;;;;;;;;5031647;28;20017;-69
2022/11/10 12:41:10;;;;;;;2.60;1.02;;;;;;;;;;5035494;28;20024;-68
2022/11/10 12:43:40;;;;;;;5.18;1.30;;;;;;;;;;5033239;28;20116;-68
2022/11/10 12:46:07;;;;;;;4.68;1.20;;;;;;;;;;5029208;28;20021;-68
2022/11/10 12:48:42;;;;;;;2.95;1.17;;;;;;;;;;5028291;28;20109;-68
2022/11/10 12:51:20;;;;;;;5.97;1.35;;;;;;;;;;5034952;28;20107;-68
2022/11/10 12:53:46;;;;;;;7.00;1.38;;;;;;;;;;5029832;28;20025;-67
2022/11/10 12:56:22;;;;;;;6.05;1.38;;;;;;;;;;5032979;28;20029;-67
2022/11/10 12:58:48;;;;;;;1.95;1.10;;;;;;;;;;5037564;28;20479;-67
2022/11/10 13:01:16;;;;;;;4.20;1.90;;;;;;;;;;5023322;28;20163;-67
2022/11/10 13:03:55;;;;;;;2.53;1.30;;;;;;;;;;5036393;28;20032;-68
2022/11/10 13:06:31;;;;;;;5.00;1.80;;;;;;;;;;5011294;28;20033;-70
2022/11/10 13:08:57;;;;;;;2.05;1.00;;;;;;;;;;5033277;28;20054;-62
2022/11/10 13:11:24;;;;;;;3.47;1.10;;;;;;;;;;5034897;28;20029;-60
2022/11/10 13:13:55;;;;;;;3.05;1.13;;;;;;;;;;5034911;28;20030;-61
2022/11/10 13:16:29;;;;;;;5.50;1.60;;;;;;;;;;5032838;28;20107;-63
2022/11/10 13:18:54;;;;;;;3.90;1.30;;;;;;;;;;5033513;28;20032;-61
2022/11/10 13:21:39;;;;;;;7.07;2.27;;;;;;;;;;5035785;28;20037;-60
2022/11/10 13:24:17;;;;;;;4.60;1.30;;;;;;;;;;5034708;28;20373;-69
2022/11/10 13:26:42;;;;;;;2.70;1.48;;;;;;;;;;5035257;28;20112;-70
2022/11/10 13:29:30;;;;;;;2.97;1.53;;;;;;;;;;5035542;28;20510;-73
2022/11/10 13:31:57;;;;;;;5.80;1.77;;;;;;;;;;5038338;28;20276;-76
2022/11/10 13:34:35;;;;;;;4.70;1.83;;;;;;;;;;5018544;28;20124;-73
2022/11/10 13:37:01;;;;;;;2.65;1.10;;;;;;;;;;5034807;28;20028;-73
2022/11/10 13:39:33;;;;;;;5.47;1.42;;;;;;;;;;5031783;28;20534;-75
2022/11/10 13:41:59;;;;;;;4.07;1.23;;;;;;;;;;5017894;28;20037;-78
2022/11/10 13:44:26;;;;;;;4.70;1.00;;;;;;;;;;5037533;28;20065;-70
2022/11/10 13:46:54;;;;;;;4.45;0.85;;;;;;;;;;5036972;28;20061;-83
2022/11/10 13:49:19;;;;;;;4.93;1.60;;;;;;;;;;5015723;28;20156;-82
2022/11/10 13:51:50;;;;;;;2.37;1.17;;;;;;;;;;5014951;28;20132;-78
2022/11/10 13:54:15;;;;;;;6.90;1.05;;;;;;;;;;5018426;28;20044;-78
2022/11/10 13:56:50;;;;;;;3.83;1.27;;;;;;;;;;5014591;28;20477;-77
2022/11/10 13:59:17;;;;;;;4.38;1.00;;;;;;;;;;5029519;28;20609;-83
2022/11/10 14:01:42;;;;;;;2.45;1.38;;;;;;;;;;5034903;28;20115;-70
2022/11/10 14:04:27;;;;;;;11.43;2.07;;;;;;;;;;5038953;28;20540;-80
2022/11/10 14:06:54;;;;;;;4.32;1.50;;;;;;;;;;5017414;28;20296;-78
2022/11/10 14:09:30;;;;;;;5.10;1.55;;;;;;;;;;5016233;28;20080;-77
2022/11/10 14:12:02;;;;;;;2.17;0.90;;;;;;;;;;5021895;28;20026;-77
2022/11/10 14:14:40;;;;;;;3.25;1.27;;;;;;;;;;5018897;28;20053;-78
2022/11/10 14:17:13;;;;;;;2.58;1.05;;;;;;;;;;5030994;28;20033;-78
2022/11/10 14:19:40;;;;;;;5.28;1.20;;;;;;;;;;5018891;28;20460;-71
2022/11/10 14:22:15;;;;;;;4.43;0.95;;;;;;;;;;5016302;28;20040;-79
2022/11/10 14:24:50;;;;;;;5.43;1.52;;;;;;;;;;5015983;28;20036;-76
2022/11/10 14:27:20;;;;;;;5.88;1.77;;;;;;;;;;5033172;28;20083;-78
2022/11/10 14:29:46;;;;;;;5.95;1.65;;;;;;;;;;5032784;28;20049;-79
2022/11/10 14:32:14;;;;;;;6.23;1.80;;;;;;;;;;5040325;28;20099;-78
2022/11/10 14:34:50;;;;;;;4.47;1.92;;;;;;;;;;5023925;28;20319;-77
2022/11/10 14:37:22;;;;;;;6.00;2.28;;;;;;;;;;5031103;28;20021;-73
2022/11/10 14:39:49;;;;;;;4.38;2.10;;;;;;;;;;5036858;28;20025;-72
2022/11/10 14:42:20;;;;;;;5.75;2.42;;;;;;;;;;5032124;28;20021;-72
2022/11/10 14:44:46;;;;;;;3.70;1.83;;;;;;;;;;5012289;28;20022;-74
2022/11/10 14:47:25;;;;;;;3.70;2.00;;;;;;;;;;5034187;28;20032;-75
2022/11/10 14:50:05;;;;;;;7.00;2.70;;;;;;;;;;5034936;28;20033;-73
2022/11/10 14:52:31;;;;;;;4.70;2.10;;;;;;;;;;5031464;28;20078;-72
2022/11/10 14:54:56;;;;;;;7.45;2.35;;;;;;;;;;5031735;28;20108;-74
2022/11/10 14:57:21;;;;;;;5.97;2.08;;;;;;;;;;5012220;28;20096;-74